createdAt,value
2017-04-22T00:00:00.447Z,91.60
2017-04-22T00:01:00.811Z,91.50
2017-04-22T00:02:00.252Z,91.60
2017-04-22T00:02:59.733Z,91.50
2017-04-22T00:03:59.251Z,91.40
2017-04-22T00:04:59.174Z,91.20
2017-04-22T00:05:58.603Z,91.30
2017-04-22T00:06:58.044Z,91.30
2017-04-22T00:07:58.212Z,91.20
2017-04-22T00:08:57.714Z,91.30
2017-04-22T00:17:16.714Z,91.30
2017-04-22T00:18:16.326Z,91.10
2017-04-22T00:19:15.827Z,91.20
2017-04-22T00:20:15.329Z,91.20
2017-04-22T00:21:14.799Z,91.50
2017-04-22T00:22:14.260Z,91.60
2017-04-22T00:23:14.604Z,91.40
2017-04-22T00:24:14.038Z,91.60
2017-04-22T00:25:13.579Z,91.60
2017-04-22T00:26:13.289Z,91.70
2017-04-22T00:27:13.122Z,91.70
2017-04-22T00:28:12.608Z,91.50
2017-04-22T00:29:12.124Z,91.80
2017-04-22T00:30:12.672Z,91.80
2017-04-22T00:31:12.432Z,91.80
2017-04-22T00:32:11.962Z,92.00
2017-04-22T00:33:11.440Z,92.00
2017-04-22T00:34:10.905Z,92.00
2017-04-22T00:35:10.572Z,92.10
2017-04-22T00:36:10.303Z,92.10
2017-04-22T00:37:09.947Z,91.90
2017-04-22T00:38:10.252Z,91.90
2017-04-22T00:39:09.723Z,92.10
2017-04-22T00:40:09.518Z,92.00
2017-04-22T00:41:09.183Z,91.90
2017-04-22T00:42:08.726Z,91.90
2017-04-22T00:43:08.147Z,91.70
2017-04-22T00:44:08.396Z,91.60
2017-04-22T00:45:08.660Z,91.60
2017-04-22T00:46:08.167Z,91.60
2017-04-22T00:47:07.624Z,91.40
2017-04-22T00:48:07.099Z,91.40
2017-04-22T00:49:06.604Z,91.40
2017-04-22T00:50:06.070Z,91.60
2017-04-22T00:51:05.533Z,91.40
2017-04-22T00:52:05.941Z,91.40
2017-04-22T00:53:05.381Z,91.20
2017-04-22T00:54:04.843Z,91.30
2017-04-22T00:55:05.049Z,91.30
2017-04-22T00:56:05.264Z,91.70
2017-04-22T00:57:05.528Z,91.40
2017-04-22T00:58:05.008Z,91.20
2017-04-22T00:59:04.464Z,91.30
2017-04-22T01:00:03.916Z,91.50
2017-04-22T01:01:03.453Z,91.30
2017-04-22T01:02:03.733Z,91.10
2017-04-22T01:03:03.380Z,91.10
2017-04-22T01:04:02.856Z,91.10
2017-04-22T01:05:03.053Z,91.00
2017-04-22T01:06:02.527Z,91.00
2017-04-22T01:07:02.020Z,91.10
2017-04-22T01:08:01.449Z,91.20
2017-04-22T01:09:01.890Z,91.00
2017-04-22T01:10:01.290Z,91.00
2017-04-22T01:11:00.744Z,90.80
2017-04-22T01:12:00.179Z,90.50
2017-04-22T01:12:59.605Z,90.60
2017-04-22T01:13:59.130Z,90.90
2017-04-22T01:14:58.955Z,90.80
2017-04-22T01:15:58.393Z,91.00
2017-04-22T01:16:57.889Z,90.70
2017-04-22T01:17:57.362Z,90.70
2017-04-22T01:18:56.807Z,90.70
2017-04-22T01:20:56.101Z,90.70
2017-04-22T01:21:55.564Z,90.80
2017-04-22T01:22:55.179Z,90.70
2017-04-22T01:23:54.601Z,90.60
2017-04-22T01:24:54.903Z,90.70
2017-04-22T01:25:55.179Z,90.80
2017-04-22T01:26:54.635Z,90.90
2017-04-22T01:27:54.177Z,90.70
2017-04-22T01:28:53.671Z,90.70
2017-04-22T01:29:53.191Z,90.70
2017-04-22T01:30:53.406Z,90.80
2017-04-22T01:31:53.850Z,91.10
2017-04-22T01:32:53.301Z,90.80
2017-04-22T01:33:52.725Z,90.80
2017-04-22T01:34:52.169Z,91.00
2017-04-22T01:35:51.597Z,91.10
2017-04-22T01:36:51.867Z,91.00
2017-04-22T01:37:51.511Z,91.10
2017-04-22T01:38:50.977Z,91.10
2017-04-22T01:39:50.487Z,91.30
2017-04-22T01:40:49.959Z,91.30
2017-04-22T01:41:49.428Z,91.00
2017-04-22T01:42:48.831Z,91.00
2017-04-22T01:43:48.322Z,90.80
2017-04-22T01:44:47.791Z,90.90
2017-04-22T01:45:47.208Z,91.00
2017-04-22T01:46:46.677Z,90.80
2017-04-22T01:47:46.141Z,91.10
2017-04-22T01:48:46.341Z,91.30
2017-04-22T01:49:46.082Z,91.20
2017-04-22T01:50:45.552Z,91.10
2017-04-22T01:51:45.052Z,91.10
2017-04-22T01:52:44.528Z,90.90
2017-04-22T01:53:44.027Z,90.80
2017-04-22T01:54:43.463Z,90.90
2017-04-22T01:55:43.251Z,90.90
2017-04-22T01:56:42.718Z,91.00
2017-04-22T01:57:42.161Z,90.80
2017-04-22T01:58:41.685Z,90.60
2017-04-22T01:59:41.195Z,90.60
2017-04-22T02:00:40.656Z,90.50
2017-04-22T02:01:40.321Z,90.60
2017-04-22T02:02:39.886Z,90.70
2017-04-22T02:03:39.373Z,90.70
2017-04-22T02:04:38.823Z,90.70
2017-04-22T02:05:38.301Z,90.80
2017-04-22T02:06:37.729Z,90.90
2017-04-22T02:07:37.379Z,90.90
2017-04-22T02:08:36.845Z,91.20
2017-04-22T02:09:36.322Z,91.00
2017-04-22T02:10:35.854Z,90.70
2017-04-22T02:11:35.307Z,90.60
2017-04-22T02:12:34.779Z,90.90
2017-04-22T02:13:34.440Z,91.00
2017-04-22T02:14:34.799Z,91.10
2017-04-22T02:15:34.387Z,91.10
2017-04-22T02:16:33.844Z,91.20
2017-04-22T02:17:33.405Z,91.50
2017-04-22T02:18:32.835Z,90.80
2017-04-22T02:19:32.653Z,90.90
2017-04-22T02:20:32.812Z,90.80
2017-04-22T02:21:32.419Z,90.90
2017-04-22T02:22:31.872Z,91.10
2017-04-22T02:23:31.325Z,91.30
2017-04-22T02:24:30.764Z,91.30
2017-04-22T02:25:30.395Z,91.20
2017-04-22T02:26:29.855Z,91.20
2017-04-22T02:27:29.637Z,91.30
2017-04-22T02:28:29.100Z,91.30
2017-04-22T02:29:28.555Z,91.30
2017-04-22T02:30:27.992Z,91.40
2017-04-22T02:31:27.462Z,91.40
2017-04-22T02:32:26.929Z,91.40
2017-04-22T02:33:26.389Z,91.50
2017-04-22T02:34:25.848Z,91.60
2017-04-22T02:35:25.304Z,91.60
2017-04-22T02:36:24.782Z,91.70
2017-04-22T02:37:25.024Z,91.80
2017-04-22T02:38:24.503Z,91.90
2017-04-22T02:39:23.999Z,91.80
2017-04-22T02:40:23.455Z,91.80
2017-04-22T02:41:23.677Z,91.80
2017-04-22T02:42:23.856Z,91.90
2017-04-22T02:43:23.601Z,91.80
2017-04-22T02:44:23.063Z,91.90
2017-04-22T02:45:22.517Z,91.90
2017-04-22T02:46:21.989Z,91.90
2017-04-22T02:47:21.448Z,92.20
2017-04-22T02:48:20.908Z,92.20
2017-04-22T02:49:21.441Z,92.20
2017-04-22T02:50:20.928Z,92.20
2017-04-22T02:51:20.393Z,92.30
2017-04-22T02:52:19.887Z,92.20
2017-04-22T02:53:19.410Z,92.20
2017-04-22T02:54:18.856Z,92.20
2017-04-22T02:55:19.216Z,92.20
2017-04-22T02:56:18.681Z,92.20
2017-04-22T02:57:18.193Z,92.50
2017-04-22T02:58:17.638Z,92.60
2017-04-22T02:59:17.113Z,92.70
2017-04-22T03:00:17.578Z,92.40
2017-04-22T03:01:17.191Z,92.60
2017-04-22T03:02:16.661Z,92.60
2017-04-22T03:03:16.096Z,92.50
2017-04-22T03:04:15.583Z,92.50
2017-04-22T03:05:15.009Z,92.70
2017-04-22T03:06:14.457Z,92.80
2017-04-22T03:07:13.949Z,92.80
2017-04-22T03:08:13.372Z,92.70
2017-04-22T03:09:12.803Z,92.60
2017-04-22T03:10:13.010Z,92.70
2017-04-22T03:11:12.470Z,92.60
2017-04-22T03:12:11.931Z,92.60
2017-04-22T03:13:11.416Z,92.60
2017-04-22T03:14:10.867Z,92.50
2017-04-22T03:15:10.339Z,92.30
2017-04-22T03:16:09.816Z,92.70
2017-04-22T03:17:09.279Z,92.50
2017-04-22T03:18:09.483Z,92.50
2017-04-22T03:19:09.713Z,92.40
2017-04-22T03:20:09.223Z,92.20
2017-04-22T03:21:09.679Z,92.20
2017-04-22T03:22:09.136Z,92.00
2017-04-22T03:23:08.587Z,91.90
2017-04-22T03:24:08.063Z,91.90
2017-04-22T03:25:07.561Z,91.80
2017-04-22T03:26:07.057Z,91.70
2017-04-22T03:27:06.532Z,91.80
2017-04-22T03:28:06.086Z,91.50
2017-04-22T03:29:05.554Z,91.40
2017-04-22T03:30:05.043Z,91.30
2017-04-22T03:31:04.673Z,91.40
2017-04-22T03:32:04.145Z,91.40
2017-04-22T03:33:04.348Z,91.30
2017-04-22T03:34:03.768Z,91.20
2017-04-22T03:35:03.208Z,91.20
2017-04-22T03:36:02.667Z,91.20
2017-04-22T03:37:02.938Z,91.30
2017-04-22T03:38:02.574Z,91.00
2017-04-22T03:39:02.304Z,90.80
2017-04-22T03:40:01.768Z,90.80
2017-04-22T03:41:01.264Z,90.80
2017-04-22T03:42:00.709Z,90.80
2017-04-22T03:43:00.566Z,90.80
2017-04-22T03:43:59.992Z,90.70
2017-04-22T03:44:59.416Z,90.90
2017-04-22T03:45:58.897Z,90.30
2017-04-22T03:46:58.353Z,89.80
2017-04-22T03:47:57.800Z,90.00
2017-04-22T03:48:57.291Z,90.00
2017-04-22T03:49:57.522Z,89.90
2017-04-22T03:50:57.009Z,89.70
2017-04-22T03:51:57.212Z,88.90
2017-04-22T03:52:56.675Z,88.70
2017-04-22T03:53:56.118Z,88.60
2017-04-22T03:54:56.019Z,88.50
2017-04-22T03:55:55.475Z,88.60
2017-04-22T03:56:54.931Z,88.50
2017-04-22T03:57:54.387Z,88.10
2017-04-22T03:58:54.603Z,88.30
2017-04-22T03:59:54.088Z,88.20
2017-04-22T04:00:54.027Z,88.50
2017-04-22T04:01:53.456Z,88.40
2017-04-22T04:02:52.928Z,88.60
2017-04-22T04:03:52.416Z,89.30
2017-04-22T04:04:51.947Z,89.30
2017-04-22T04:05:51.386Z,89.80
2017-04-22T04:06:50.883Z,90.30
2017-04-22T04:07:50.450Z,90.10
2017-04-22T04:08:49.897Z,90.20
2017-04-22T04:09:49.455Z,90.10
2017-04-22T04:10:49.673Z,90.30
2017-04-22T04:11:49.870Z,90.40
2017-04-22T04:12:49.651Z,90.60
2017-04-22T04:13:49.112Z,90.70
2017-04-22T04:14:48.573Z,90.70
2017-04-22T04:15:48.740Z,90.70
2017-04-22T04:16:51.123Z,90.70
2017-04-22T04:17:50.876Z,90.70
2017-04-22T04:18:50.347Z,90.80
2017-04-22T04:19:49.818Z,90.90
2017-04-22T04:20:50.024Z,90.90
2017-04-22T04:21:49.475Z,90.70
2017-04-22T04:22:48.916Z,90.50
2017-04-22T04:23:48.539Z,90.70
2017-04-22T04:24:48.002Z,90.50
2017-04-22T04:25:47.495Z,90.10
2017-04-22T04:26:46.964Z,90.20
2017-04-22T04:27:46.520Z,90.20
2017-04-22T04:28:45.989Z,91.00
2017-04-22T04:29:45.696Z,90.90
2017-04-22T04:30:45.195Z,90.90
2017-04-22T04:31:45.368Z,90.90
2017-04-22T04:32:44.815Z,91.10
2017-04-22T04:33:44.281Z,91.20
2017-04-22T04:34:43.708Z,91.30
2017-04-22T04:35:43.243Z,91.30
2017-04-22T04:36:42.676Z,91.40
2017-04-22T04:37:42.850Z,91.30
2017-04-22T04:38:42.296Z,91.40
2017-04-22T04:39:41.742Z,91.10
2017-04-22T04:40:41.188Z,91.30
2017-04-22T04:41:40.974Z,91.40
2017-04-22T04:42:40.404Z,91.30
2017-04-22T04:43:39.847Z,90.90
2017-04-22T04:44:39.299Z,90.80
2017-04-22T04:45:38.753Z,90.90
2017-04-22T04:46:38.215Z,90.70
2017-04-22T04:47:38.023Z,90.70
2017-04-22T04:48:38.239Z,90.90
2017-04-22T04:49:38.419Z,90.70
2017-04-22T04:50:37.884Z,90.60
2017-04-22T04:51:37.355Z,90.20
2017-04-22T04:52:36.867Z,90.00
2017-04-22T04:53:36.446Z,89.50
2017-04-22T04:54:35.927Z,89.60
2017-04-22T04:55:36.132Z,89.70
2017-04-22T04:56:35.587Z,89.60
2017-04-22T04:57:35.028Z,89.90
2017-04-22T04:58:35.215Z,89.40
2017-04-22T04:59:34.852Z,89.30
2017-04-22T05:00:34.312Z,89.70
2017-04-22T05:01:34.537Z,90.70
2017-04-22T05:02:34.729Z,89.80
2017-04-22T05:03:34.204Z,89.30
2017-04-22T05:04:33.688Z,90.10
2017-04-22T05:05:33.214Z,89.20
2017-04-22T05:06:32.692Z,88.40
2017-04-22T05:07:32.990Z,87.30
2017-04-22T05:08:32.431Z,86.60
2017-04-22T05:09:32.633Z,86.50
2017-04-22T05:10:32.046Z,86.10
2017-04-22T05:11:32.480Z,85.80
2017-04-22T05:12:31.964Z,86.40
2017-04-22T05:13:31.425Z,86.40
2017-04-22T05:14:30.843Z,85.80
2017-04-22T05:15:30.315Z,85.90
2017-04-22T05:16:29.814Z,86.10
2017-04-22T05:18:29.731Z,85.90
2017-04-22T05:19:29.927Z,85.70
2017-04-22T05:20:29.406Z,86.10
2017-04-22T05:21:28.845Z,85.50
2017-04-22T05:22:28.778Z,85.40
2017-04-22T05:23:28.265Z,85.00
2017-04-22T05:24:27.924Z,85.60
2017-04-22T05:25:28.155Z,85.40
2017-04-22T05:26:28.013Z,84.60
2017-04-22T05:27:27.760Z,84.70
2017-04-22T05:28:27.410Z,85.50
2017-04-22T05:29:26.943Z,84.10
2017-04-22T05:30:27.413Z,84.00
2017-04-22T05:31:26.862Z,83.70
2017-04-22T05:32:27.044Z,84.30
2017-04-22T05:33:26.784Z,84.00
2017-04-22T05:34:26.270Z,84.30
2017-04-22T05:35:28.265Z,84.70
2017-04-22T05:36:27.709Z,84.80
2017-04-22T05:37:27.925Z,85.30
2017-04-22T05:38:27.592Z,86.20
2017-04-22T05:39:27.058Z,86.20
2017-04-22T05:40:26.580Z,86.50
2017-04-22T05:41:26.856Z,86.20
2017-04-22T05:42:26.720Z,87.00
2017-04-22T05:43:26.951Z,86.70
2017-04-22T05:44:26.412Z,86.70
2017-04-22T05:45:25.842Z,86.90
2017-04-22T05:46:25.293Z,87.30
2017-04-22T05:47:24.773Z,87.20
2017-04-22T05:48:24.251Z,87.00
2017-04-22T05:49:24.019Z,86.60
2017-04-22T05:50:24.356Z,86.50
2017-04-22T05:51:24.015Z,86.40
2017-04-22T05:52:23.515Z,86.70
2017-04-22T05:53:25.480Z,86.70
2017-04-22T05:54:25.920Z,86.90
2017-04-22T05:55:25.919Z,86.40
2017-04-22T05:56:25.329Z,87.40
2017-04-22T05:57:26.032Z,87.60
2017-04-22T05:58:25.647Z,86.90
2017-04-22T05:59:25.243Z,86.70
2017-04-22T06:00:24.735Z,86.40
2017-04-22T06:01:24.279Z,86.60
2017-04-22T06:02:24.321Z,86.40
2017-04-22T06:03:23.796Z,86.60
2017-04-22T06:04:23.267Z,86.70
2017-04-22T06:05:23.676Z,87.10
2017-04-22T06:06:25.997Z,87.60
2017-04-22T06:07:27.123Z,87.20
2017-04-22T06:08:26.580Z,87.10
2017-04-22T06:09:26.021Z,87.20
2017-04-22T06:10:25.512Z,87.00
2017-04-22T06:11:25.619Z,86.50
2017-04-22T06:12:25.191Z,86.60
2017-04-22T06:13:24.639Z,86.60
2017-04-22T06:15:25.757Z,85.50
2017-04-22T06:16:27.098Z,86.00
2017-04-22T06:17:26.850Z,85.30
2017-04-22T06:18:26.334Z,85.40
2017-04-22T06:19:26.544Z,85.20
2017-04-22T06:20:26.280Z,84.80
2017-04-22T06:21:26.381Z,85.00
2017-04-22T06:22:26.316Z,85.10
2017-04-22T06:23:26.339Z,84.50
2017-04-22T06:24:29.487Z,84.50
2017-04-22T06:25:29.276Z,84.50
2017-04-22T06:26:28.736Z,84.00
2017-04-22T06:27:29.068Z,84.00
2017-04-22T06:28:29.542Z,83.60
2017-04-22T06:29:28.979Z,83.50
2017-04-22T06:30:28.524Z,83.70
2017-04-22T06:31:28.398Z,83.20
2017-04-22T06:32:27.859Z,82.80
2017-04-22T06:33:27.558Z,82.50
2017-04-22T06:34:27.011Z,82.40
2017-04-22T06:35:26.474Z,81.70
2017-04-22T06:36:26.284Z,81.50
2017-04-22T06:37:25.784Z,81.00
2017-04-22T06:38:25.329Z,80.60
2017-04-22T06:39:24.775Z,80.50
2017-04-22T06:40:24.312Z,80.50
2017-04-22T06:41:23.765Z,80.30
2017-04-22T06:42:23.668Z,80.60
2017-04-22T06:43:23.128Z,80.70
2017-04-22T06:44:23.344Z,80.40
2017-04-22T06:45:22.851Z,80.20
2017-04-22T06:46:23.081Z,80.30
2017-04-22T06:47:22.519Z,80.10
2017-04-22T06:48:22.665Z,80.20
2017-04-22T06:49:22.907Z,80.40
2017-04-22T06:50:22.681Z,80.40
2017-04-22T06:51:22.357Z,79.80
2017-04-22T06:52:21.855Z,79.90
2017-04-22T06:53:21.317Z,80.10
2017-04-22T06:55:20.689Z,79.50
2017-04-22T06:56:20.419Z,79.00
2017-04-22T06:57:20.076Z,78.10
2017-04-22T06:58:19.501Z,78.10
2017-04-22T06:59:18.964Z,77.40
2017-04-22T07:00:18.453Z,77.30
2017-04-22T07:01:17.941Z,78.10
2017-04-22T07:02:23.840Z,77.90
2017-04-22T07:03:23.335Z,77.50
2017-04-22T07:04:22.838Z,77.00
2017-04-22T07:05:23.611Z,76.90
2017-04-22T07:06:23.141Z,76.50
2017-04-22T07:07:23.367Z,76.50
2017-04-22T07:08:22.815Z,76.70
2017-04-22T07:09:22.849Z,76.50
2017-04-22T07:10:22.315Z,76.10
2017-04-22T07:11:21.904Z,76.10
2017-04-22T07:12:20.631Z,76.00
2017-04-22T07:13:20.088Z,75.40
2017-04-22T07:14:19.568Z,75.00
2017-04-22T07:15:19.014Z,74.50
2017-04-22T07:16:18.503Z,74.20
2017-04-22T07:17:18.108Z,74.60
2017-04-22T07:18:17.591Z,74.80
2017-04-22T07:19:16.988Z,74.50
2017-04-22T07:20:16.500Z,74.80
2017-04-22T07:21:15.937Z,74.80
2017-04-22T07:22:15.534Z,75.00
2017-04-22T07:23:15.260Z,74.20
2017-04-22T07:24:14.909Z,73.80
2017-04-22T07:25:15.113Z,72.50
2017-04-22T07:26:15.325Z,72.70
2017-04-22T07:27:15.511Z,72.60
2017-04-22T07:28:15.762Z,72.70
2017-04-22T07:29:15.324Z,73.10
2017-04-22T07:30:14.804Z,73.60
2017-04-22T07:31:14.286Z,73.80
2017-04-22T07:32:13.710Z,74.50
2017-04-22T07:33:13.200Z,75.40
2017-04-22T07:34:13.049Z,76.20
2017-04-22T07:35:12.484Z,76.60
2017-04-22T07:36:12.050Z,77.20
2017-04-22T07:37:11.537Z,77.50
2017-04-22T07:38:10.986Z,78.00
2017-04-22T07:39:10.560Z,78.70
2017-04-22T07:40:10.023Z,78.90
2017-04-22T07:41:09.460Z,79.30
2017-04-22T07:42:08.936Z,79.80
2017-04-22T07:43:08.359Z,80.50
2017-04-22T07:44:07.800Z,81.90
2017-04-22T07:45:07.288Z,82.60
2017-04-22T07:46:06.882Z,83.60
2017-04-22T07:47:06.413Z,83.30
2017-04-22T07:48:05.939Z,85.20
2017-04-22T07:49:05.407Z,86.20
2017-04-22T07:50:04.909Z,91.10
2017-04-22T07:51:04.467Z,92.30
2017-04-22T07:52:04.124Z,92.90
2017-04-22T07:53:03.595Z,93.60
2017-04-22T07:54:03.306Z,94.30
2017-04-22T07:55:02.809Z,94.40
2017-04-22T07:56:02.290Z,94.60
2017-04-22T07:57:01.783Z,94.80
2017-04-22T07:58:01.295Z,95.10
2017-04-22T07:59:00.839Z,95.10
2017-04-22T08:00:00.344Z,95.30
2017-04-22T08:00:59.796Z,95.00
2017-04-22T08:02:00.128Z,95.00
2017-04-22T08:03:00.157Z,95.10
2017-04-22T08:03:59.651Z,95.30
2017-04-22T08:04:59.189Z,95.50
2017-04-22T08:05:58.677Z,95.00
2017-04-22T08:06:58.293Z,95.10
2017-04-22T08:07:57.780Z,95.00
2017-04-22T08:08:57.334Z,95.20
2017-04-22T08:09:57.851Z,94.90
2017-04-22T08:10:57.354Z,95.30
2017-04-22T08:11:56.856Z,94.70
2017-04-22T08:12:56.539Z,94.80
2017-04-22T08:13:56.054Z,95.10
2017-04-22T08:14:55.627Z,94.80
2017-04-22T08:15:55.408Z,94.60
2017-04-22T08:16:54.932Z,94.70
2017-04-22T08:17:54.425Z,94.60
2017-04-22T08:18:53.917Z,94.50
2017-04-22T08:19:53.361Z,94.90
2017-04-22T08:20:53.601Z,94.90
2017-04-22T08:21:53.155Z,94.70
2017-04-22T08:22:52.668Z,94.60
2017-04-22T08:23:52.221Z,94.40
2017-04-22T08:24:51.690Z,94.70
2017-04-22T08:25:51.138Z,93.80
2017-04-22T08:26:50.605Z,94.20
2017-04-22T08:27:50.397Z,94.50
2017-04-22T08:28:49.893Z,94.90
2017-04-22T08:29:49.556Z,94.30
2017-04-22T08:30:49.040Z,93.50
2017-04-22T08:31:49.516Z,92.30
2017-04-22T08:32:49.101Z,91.60
2017-04-22T08:33:48.683Z,92.00
2017-04-22T08:34:48.152Z,91.70
2017-04-22T08:35:48.354Z,91.10
2017-04-22T08:36:48.595Z,91.80
2017-04-22T08:37:48.185Z,91.60
2017-04-22T08:38:47.652Z,91.20
2017-04-22T08:39:47.181Z,92.00
2017-04-22T08:40:46.649Z,92.50
2017-04-22T08:41:46.149Z,93.00
2017-04-22T08:42:46.367Z,93.10
2017-04-22T08:43:45.956Z,93.20
2017-04-22T08:44:45.680Z,92.90
2017-04-22T08:45:45.310Z,93.00
2017-04-22T08:46:52.011Z,92.90
2017-04-22T08:47:45.239Z,92.90
2017-04-22T08:48:44.745Z,93.30
2017-04-22T08:49:44.252Z,93.30
2017-04-22T08:50:44.524Z,93.00
2017-04-22T08:51:44.096Z,93.00
2017-04-22T08:52:43.567Z,93.20
2017-04-22T08:53:43.053Z,93.20
2017-04-22T08:54:43.547Z,93.00
2017-04-22T08:55:44.678Z,92.70
2017-04-22T08:56:44.202Z,93.00
2017-04-22T08:57:43.669Z,93.10
2017-04-22T08:58:43.944Z,93.60
2017-04-22T08:59:43.399Z,93.20
2017-04-22T09:00:43.647Z,93.00
2017-04-22T09:01:43.230Z,93.70
2017-04-22T09:02:42.749Z,93.30
2017-04-22T09:03:42.304Z,93.00
2017-04-22T09:04:41.849Z,93.00
2017-04-22T09:05:41.326Z,93.00
2017-04-22T09:06:40.972Z,92.80
2017-04-22T09:07:40.431Z,92.80
2017-04-22T09:08:39.892Z,93.00
2017-04-22T09:09:39.353Z,92.90
2017-04-22T09:10:38.914Z,92.90
2017-04-22T09:11:38.649Z,93.20
2017-04-22T09:12:38.971Z,93.20
2017-04-22T09:13:39.252Z,92.70
2017-04-22T09:14:39.592Z,92.20
2017-04-22T09:15:44.456Z,92.00
2017-04-22T09:16:47.417Z,91.30
2017-04-22T09:17:48.808Z,91.60
2017-04-22T09:18:49.156Z,91.50
2017-04-22T09:19:48.633Z,91.00
2017-04-22T09:20:48.083Z,89.40
2017-04-22T09:21:47.573Z,88.60
2017-04-22T09:22:47.142Z,87.80
2017-04-22T09:23:47.533Z,87.40
2017-04-22T09:24:47.038Z,87.90
2017-04-22T09:25:47.335Z,88.20
2017-04-22T09:26:46.794Z,87.40
2017-04-22T09:27:46.266Z,86.20
2017-04-22T09:28:45.809Z,86.40
2017-04-22T09:29:45.383Z,86.20
2017-04-22T09:30:44.888Z,87.70
2017-04-22T09:31:44.373Z,87.40
2017-04-22T09:32:43.967Z,87.40
2017-04-22T09:33:43.464Z,85.70
2017-04-22T09:34:42.937Z,86.30
2017-04-22T09:35:42.758Z,85.30
2017-04-22T09:36:44.055Z,83.80
2017-04-22T09:37:44.329Z,82.70
2017-04-22T09:38:44.946Z,82.40
2017-04-22T09:39:45.153Z,81.20
2017-04-22T09:40:44.796Z,81.20
2017-04-22T09:41:44.443Z,80.30
2017-04-22T09:42:43.930Z,81.70
2017-04-22T09:43:43.471Z,81.10
2017-04-22T09:44:43.303Z,80.60
2017-04-22T09:45:42.964Z,81.00
2017-04-22T09:46:42.754Z,82.20
2017-04-22T09:48:41.932Z,81.90
2017-04-22T09:49:41.467Z,82.00
2017-04-22T09:50:40.991Z,81.60
2017-04-22T09:51:40.464Z,81.80
2017-04-22T09:52:40.166Z,81.80
2017-04-22T09:53:40.353Z,81.50
2017-04-22T09:54:39.815Z,81.90
2017-04-22T09:55:39.251Z,83.30
2017-04-22T09:56:38.912Z,84.40
2017-04-22T09:57:38.373Z,87.60
2017-04-22T09:58:37.945Z,90.30
2017-04-22T09:59:39.100Z,91.70
2017-04-22T10:00:38.563Z,92.70
2017-04-22T10:01:38.022Z,93.80
2017-04-22T10:02:37.507Z,94.00
2017-04-22T10:03:37.043Z,94.10
2017-04-22T10:04:36.623Z,94.50
2017-04-22T10:05:36.108Z,94.10
2017-04-22T10:06:35.577Z,94.40
2017-04-22T10:07:35.137Z,93.90
2017-04-22T10:08:34.622Z,94.00
2017-04-22T10:09:34.530Z,93.90
2017-04-22T10:10:33.992Z,94.40
2017-04-22T10:11:33.548Z,94.50
2017-04-22T10:12:33.180Z,94.00
2017-04-22T10:13:32.619Z,93.10
2017-04-22T10:14:32.915Z,93.20
2017-04-22T10:15:32.472Z,93.30
2017-04-22T10:16:31.974Z,93.20
2017-04-22T10:17:32.225Z,93.60
2017-04-22T10:18:31.951Z,93.60
2017-04-22T10:19:31.415Z,93.70
2017-04-22T10:20:30.975Z,93.20
2017-04-22T10:21:30.527Z,93.20
2017-04-22T10:22:30.801Z,92.80
2017-04-22T10:23:30.256Z,92.20
2017-04-22T10:24:29.727Z,92.20
2017-04-22T10:25:29.944Z,92.50
2017-04-22T10:26:30.215Z,91.80
2017-04-22T10:27:30.668Z,91.10
2017-04-22T10:28:30.935Z,91.10
2017-04-22T10:29:30.662Z,91.10
2017-04-22T10:30:30.242Z,90.50
2017-04-22T10:31:30.004Z,90.50
2017-04-22T10:32:29.586Z,90.70
2017-04-22T10:33:29.177Z,90.90
2017-04-22T10:34:29.447Z,91.00
2017-04-22T10:35:28.984Z,91.20
2017-04-22T10:36:29.188Z,91.30
2017-04-22T10:37:29.831Z,91.90
2017-04-22T10:38:29.413Z,92.10
2017-04-22T10:39:29.712Z,91.80
2017-04-22T10:40:29.325Z,91.40
2017-04-22T10:41:29.640Z,91.70
2017-04-22T10:42:29.175Z,91.90
2017-04-22T10:43:28.858Z,92.00
2017-04-22T10:44:28.375Z,92.10
2017-04-22T10:45:27.928Z,92.50
2017-04-22T10:46:28.140Z,91.90
2017-04-22T10:47:28.152Z,90.90
2017-04-22T10:48:27.946Z,90.40
2017-04-22T10:49:28.208Z,90.10
2017-04-22T10:50:27.703Z,90.00
2017-04-22T10:51:27.326Z,90.60
2017-04-22T10:52:26.880Z,90.20
2017-04-22T10:53:26.389Z,90.50
2017-04-22T10:54:25.986Z,90.40
2017-04-22T10:55:25.529Z,87.60
2017-04-22T10:56:25.307Z,86.70
2017-04-22T10:57:24.792Z,85.70
2017-04-22T10:58:24.564Z,84.60
2017-04-22T10:59:24.133Z,85.00
2017-04-22T11:00:23.952Z,85.10
2017-04-22T11:01:23.657Z,84.90
2017-04-22T11:02:23.359Z,85.60
2017-04-22T11:03:22.997Z,84.40
2017-04-22T11:04:22.609Z,83.60
2017-04-22T11:05:22.930Z,81.70
2017-04-22T11:06:23.443Z,81.50
2017-04-22T11:07:23.653Z,82.10
2017-04-22T11:08:23.249Z,82.10
2017-04-22T11:09:22.879Z,81.00
2017-04-22T11:10:22.426Z,80.40
2017-04-22T11:11:22.064Z,81.20
2017-04-22T11:12:21.987Z,80.40
2017-04-22T11:13:21.832Z,79.50
2017-04-22T11:14:21.441Z,78.80
2017-04-22T11:15:21.034Z,76.70
2017-04-22T11:16:20.857Z,76.10
2017-04-22T11:17:20.464Z,75.50
2017-04-22T11:18:20.321Z,78.40
2017-04-22T11:19:19.883Z,83.00
2017-04-22T11:20:19.576Z,88.20
2017-04-22T11:21:19.121Z,90.80
2017-04-22T11:22:18.663Z,91.90
2017-04-22T11:23:18.241Z,93.40
2017-04-22T11:24:18.175Z,93.60
2017-04-22T11:25:17.649Z,94.50
2017-04-22T11:26:17.996Z,94.90
2017-04-22T11:27:17.601Z,95.10
2017-04-22T11:28:17.961Z,95.40
2017-04-22T11:29:18.322Z,95.30
2017-04-22T11:30:17.918Z,95.80
2017-04-22T11:31:17.584Z,96.40
2017-04-22T11:32:17.880Z,96.70
2017-04-22T11:33:17.380Z,96.70
2017-04-22T11:34:17.692Z,96.50
2017-04-22T11:35:17.940Z,96.70
2017-04-22T11:36:18.218Z,96.10
2017-04-22T11:37:18.520Z,96.30
2017-04-22T11:38:18.543Z,95.50
2017-04-22T11:39:18.208Z,95.60
2017-04-22T11:40:17.816Z,96.20
2017-04-22T11:41:17.568Z,96.00
2017-04-22T11:42:17.210Z,95.50
2017-04-22T11:43:16.827Z,95.80
2017-04-22T11:44:17.085Z,95.50
2017-04-22T11:45:17.831Z,95.40
2017-04-22T11:46:17.877Z,95.20
2017-04-22T11:47:17.810Z,95.70
2017-04-22T11:48:17.511Z,96.30
2017-04-22T11:49:17.089Z,96.10
2017-04-22T11:50:16.736Z,95.90
2017-04-22T11:51:16.424Z,95.30
2017-04-22T11:52:16.056Z,94.80
2017-04-22T11:53:16.488Z,94.80
2017-04-22T11:54:16.039Z,95.20
2017-04-22T11:55:15.616Z,95.40
2017-04-22T11:56:15.383Z,94.80
2017-04-22T11:57:16.110Z,94.90
2017-04-22T11:58:16.049Z,94.90
2017-04-22T11:59:16.664Z,94.50
2017-04-22T12:00:16.295Z,95.00
2017-04-22T12:01:16.268Z,94.70
2017-04-22T12:02:16.045Z,94.90
2017-04-22T12:03:15.776Z,94.60
2017-04-22T12:04:15.560Z,94.70
2017-04-22T12:05:15.660Z,94.60
2017-04-22T12:06:15.605Z,94.40
2017-04-22T12:07:15.266Z,93.50
2017-04-22T12:08:15.087Z,93.30
2017-04-22T12:09:14.973Z,93.20
2017-04-22T12:10:14.748Z,93.50
2017-04-22T12:11:14.609Z,93.20
2017-04-22T12:12:14.463Z,91.70
2017-04-22T12:13:14.163Z,91.30
2017-04-22T12:14:13.789Z,91.60
2017-04-22T12:15:14.795Z,92.00
2017-04-22T12:16:15.175Z,92.10
2017-04-22T12:17:14.856Z,92.20
2017-04-22T12:18:14.991Z,91.70
2017-04-22T12:19:14.686Z,91.90
2017-04-22T12:20:14.841Z,91.90
2017-04-22T12:21:15.321Z,92.00
2017-04-22T12:22:14.887Z,92.90
2017-04-22T12:23:14.433Z,93.80
2017-04-22T12:24:14.130Z,94.10
2017-04-22T12:25:15.098Z,95.00
2017-04-22T12:26:14.957Z,94.90
2017-04-22T12:27:14.515Z,94.60
2017-04-22T12:28:14.116Z,94.20
2017-04-22T12:29:13.617Z,94.50
2017-04-22T12:30:13.228Z,94.50
2017-04-22T12:31:13.424Z,94.10
2017-04-22T12:32:13.115Z,94.50
2017-04-22T12:33:12.707Z,94.50
2017-04-22T12:34:12.538Z,94.20
2017-04-22T12:35:12.082Z,94.60
2017-04-22T12:36:11.607Z,94.20
2017-04-22T12:37:11.121Z,94.30
2017-04-22T12:38:10.725Z,94.20
2017-04-22T12:39:10.387Z,94.00
2017-04-22T12:40:11.125Z,94.10
2017-04-22T12:41:11.643Z,94.00
2017-04-22T12:42:11.189Z,94.60
2017-04-22T12:43:10.773Z,93.90
2017-04-22T12:44:10.480Z,92.60
2017-04-22T12:45:10.256Z,92.00
2017-04-22T12:46:09.837Z,92.40
2017-04-22T12:47:09.359Z,92.30
2017-04-22T12:48:08.869Z,91.80
2017-04-22T12:49:08.407Z,91.40
2017-04-22T12:50:08.052Z,91.40
2017-04-22T12:51:07.736Z,92.70
2017-04-22T12:52:07.633Z,93.30
2017-04-22T12:53:07.169Z,94.30
2017-04-22T12:54:06.689Z,94.80
2017-04-22T12:55:06.335Z,95.70
2017-04-22T12:56:05.892Z,96.20
2017-04-22T12:57:05.439Z,96.60
2017-04-22T12:58:05.037Z,96.80
2017-04-22T12:59:04.580Z,97.00
2017-04-22T13:00:04.240Z,96.80
2017-04-22T13:01:04.578Z,96.60